Aviation Digital Data Service (ADDS)

Output produced by METARs form (0309 UTC 02 April 2015)
found at http://aviationweather.gov/adds/metars/
 
KDUJ 020219Z 0202/0224 14005KT P6SM SKC 
     FM021400 20012KT P6SM BKN100 
     FM021800 20015G25KT P6SM -SHRA OVC035 
     FM022200 21015G25KT 4SM -SHRA OVC025